createdAt,value
2019-02-27T00:00:30.458Z,57.60
2019-02-27T00:03:22.571Z,57.60
2019-02-27T00:06:12.884Z,57.20
2019-02-27T00:09:01.212Z,57.20
2019-02-27T00:11:49.198Z,57.20
2019-02-27T00:14:37.002Z,57.40
2019-02-27T00:17:25.257Z,57.70
2019-02-27T00:20:13.778Z,57.60
2019-02-27T00:23:01.911Z,57.40
2019-02-27T00:25:49.854Z,57.50
2019-02-27T00:28:37.611Z,58.10
2019-02-27T00:31:25.663Z,57.90
2019-02-27T00:34:13.857Z,58.00
2019-02-27T00:37:01.710Z,58.10
2019-02-27T00:39:50.266Z,58.60
2019-02-27T00:42:38.306Z,58.80
2019-02-27T00:45:26.246Z,58.60
2019-02-27T00:48:14.247Z,58.50
2019-02-27T00:51:02.413Z,58.50
2019-02-27T00:53:50.366Z,58.20
2019-02-27T00:56:39.174Z,58.40
2019-02-27T00:59:26.777Z,58.50
2019-02-27T01:02:14.970Z,58.40
2019-02-27T01:05:02.618Z,58.30
2019-02-27T01:07:53.804Z,58.50
2019-02-27T01:10:42.925Z,58.40
2019-02-27T01:13:31.852Z,58.50
2019-02-27T01:16:19.604Z,58.40
2019-02-27T01:19:08.511Z,59.50
2019-02-27T01:21:56.373Z,59.80
2019-02-27T01:24:43.909Z,59.70
2019-02-27T01:27:32.226Z,59.70
2019-02-27T01:30:23.972Z,59.80
2019-02-27T01:33:10.743Z,59.70
2019-02-27T01:35:58.466Z,59.90
2019-02-27T01:38:46.262Z,59.90
2019-02-27T01:41:34.007Z,59.90
2019-02-27T01:44:22.024Z,60.00
2019-02-27T01:47:10.323Z,59.60
2019-02-27T01:49:58.578Z,59.90
2019-02-27T01:52:46.598Z,60.00
2019-02-27T01:55:35.269Z,60.40
2019-02-27T01:58:23.262Z,60.60
2019-02-27T02:01:11.187Z,60.70
2019-02-27T02:03:59.644Z,60.60
2019-02-27T02:06:47.739Z,60.70
2019-02-27T02:09:39.864Z,60.30
2019-02-27T02:12:30.658Z,60.40
2019-02-27T02:15:47.210Z,60.60
2019-02-27T02:19:31.706Z,61.00
2019-02-27T02:22:35.175Z,61.60
2019-02-27T02:26:01.871Z,62.60
2019-02-27T02:29:46.366Z,63.00
2019-02-27T02:33:12.835Z,62.90
2019-02-27T02:36:15.711Z,63.30
2019-02-27T02:39:17.991Z,63.60
2019-02-27T02:42:31.184Z,63.60
2019-02-27T02:46:08.621Z,63.40
2019-02-27T02:49:23.637Z,63.50
2019-02-27T02:52:54.701Z,63.70
2019-02-27T02:56:13.741Z,63.40
2019-02-27T02:59:37.491Z,63.70
2019-02-27T03:02:46.690Z,64.20
2019-02-27T03:06:35.056Z,64.20
2019-02-27T03:09:55.164Z,64.70
2019-02-27T03:13:15.524Z,64.70
2019-02-27T03:16:47.561Z,64.70
2019-02-27T03:19:42.515Z,64.80
2019-02-27T03:23:15.315Z,65.00
2019-02-27T03:26:23.826Z,65.10
2019-02-27T03:30:05.287Z,65.30
2019-02-27T03:33:08.468Z,65.90
2019-02-27T03:36:39.008Z,65.90
2019-02-27T03:40:00.978Z,65.70
2019-02-27T03:43:46.082Z,66.00
2019-02-27T03:46:44.812Z,66.30
2019-02-27T03:49:59.129Z,66.40
2019-02-27T03:53:17.387Z,66.60
2019-02-27T03:56:46.827Z,67.10
2019-02-27T04:00:18.028Z,67.20
2019-02-27T04:03:26.402Z,67.20
2019-02-27T04:06:56.289Z,67.20
2019-02-27T04:09:44.690Z,67.40
2019-02-27T04:12:33.503Z,67.80
2019-02-27T04:15:21.703Z,67.50
2019-02-27T04:18:08.718Z,67.50
2019-02-27T04:20:57.728Z,67.40
2019-02-27T04:23:48.983Z,67.60
2019-02-27T04:26:41.535Z,67.70
2019-02-27T04:29:25.995Z,67.60
2019-02-27T04:32:14.077Z,68.00
2019-02-27T04:35:05.944Z,68.10
2019-02-27T04:37:54.387Z,68.10
2019-02-27T04:40:44.164Z,68.20
2019-02-27T04:43:32.686Z,68.50
2019-02-27T04:46:21.656Z,69.10
2019-02-27T04:49:10.022Z,69.00
2019-02-27T04:51:58.510Z,68.70
2019-02-27T04:54:46.610Z,68.10
2019-02-27T04:57:34.842Z,68.00
2019-02-27T05:00:26.093Z,67.80
2019-02-27T05:03:12.570Z,67.50
2019-02-27T05:06:00.559Z,67.20
2019-02-27T05:08:48.460Z,67.50
2019-02-27T05:11:36.518Z,67.60
2019-02-27T05:14:24.822Z,68.10
2019-02-27T05:17:14.519Z,68.50
2019-02-27T05:20:02.203Z,68.50
2019-02-27T05:22:50.239Z,68.80
2019-02-27T05:25:38.147Z,69.00
2019-02-27T05:28:26.174Z,68.80
2019-02-27T05:31:18.335Z,69.00
2019-02-27T05:34:04.566Z,69.20
2019-02-27T05:36:52.565Z,69.30
2019-02-27T05:39:40.482Z,69.70
2019-02-27T05:42:28.935Z,69.30
2019-02-27T05:45:16.594Z,69.20
2019-02-27T05:48:04.856Z,69.00
2019-02-27T05:50:53.064Z,69.40
2019-02-27T05:53:41.494Z,68.80
2019-02-27T05:56:29.559Z,68.80
2019-02-27T05:59:17.985Z,68.60
2019-02-27T06:02:06.065Z,68.80
2019-02-27T06:04:56.142Z,68.60
2019-02-27T06:07:44.742Z,68.10
2019-02-27T06:10:32.596Z,67.80
2019-02-27T06:13:20.266Z,67.60
2019-02-27T06:16:09.297Z,67.30
2019-02-27T06:18:57.898Z,67.40
2019-02-27T06:21:47.235Z,67.90
2019-02-27T06:24:36.030Z,68.20
2019-02-27T06:27:23.716Z,68.40
2019-02-27T06:30:14.230Z,68.40
2019-02-27T06:33:01.862Z,68.20
2019-02-27T06:35:50.495Z,68.30
2019-02-27T06:38:38.993Z,68.60
2019-02-27T06:41:26.990Z,68.80
2019-02-27T06:44:15.255Z,68.90
2019-02-27T06:47:04.965Z,69.20
2019-02-27T06:49:52.622Z,69.20
2019-02-27T06:52:42.467Z,69.40
2019-02-27T06:55:31.270Z,69.60
2019-02-27T06:58:20.342Z,69.40
2019-02-27T07:01:10.127Z,69.40
2019-02-27T07:06:55.185Z,68.50
2019-02-27T07:09:43.215Z,68.40
2019-02-27T07:12:31.963Z,67.80
2019-02-27T07:15:20.259Z,67.20
2019-02-27T07:18:08.480Z,66.70
2019-02-27T07:20:59.095Z,66.10
2019-02-27T07:23:47.427Z,65.90
2019-02-27T07:26:35.471Z,65.80
2019-02-27T07:29:27.254Z,65.60
2019-02-27T07:32:13.130Z,64.60
2019-02-27T07:35:01.460Z,64.10
2019-02-27T07:37:49.208Z,64.20
2019-02-27T07:40:37.574Z,62.10
2019-02-27T07:43:25.370Z,61.80
2019-02-27T07:46:13.747Z,60.90
2019-02-27T07:49:01.783Z,60.50
2019-02-27T07:51:49.927Z,60.30
2019-02-27T07:54:38.516Z,59.60
2019-02-27T07:57:26.778Z,59.30
2019-02-27T08:00:17.870Z,59.40
2019-02-27T08:03:09.103Z,59.50
2019-02-27T08:05:55.652Z,59.50
2019-02-27T08:08:43.780Z,59.90
2019-02-27T08:11:32.770Z,59.60
2019-02-27T08:14:20.920Z,59.50
2019-02-27T08:17:17.318Z,58.90
2019-02-27T08:20:02.102Z,58.00
2019-02-27T08:22:49.957Z,57.80
2019-02-27T08:25:37.770Z,60.10
2019-02-27T08:28:25.525Z,59.00
2019-02-27T08:31:13.762Z,58.70
2019-02-27T08:34:02.315Z,58.70
2019-02-27T08:36:50.090Z,57.00
2019-02-27T08:39:38.102Z,56.00
2019-02-27T08:42:26.196Z,54.20
2019-02-27T08:45:19.642Z,53.20
2019-02-27T08:48:05.595Z,53.10
2019-02-27T08:50:53.843Z,51.90
2019-02-27T08:53:42.050Z,52.40
2019-02-27T08:56:30.534Z,52.90
2019-02-27T08:59:18.027Z,51.80
2019-02-27T09:02:07.415Z,51.10
2019-02-27T09:04:55.523Z,50.50
2019-02-27T09:07:43.487Z,49.80
2019-02-27T09:10:31.770Z,48.90
2019-02-27T09:13:19.708Z,49.20
2019-02-27T09:16:07.864Z,48.90
2019-02-27T09:18:55.739Z,48.30
2019-02-27T09:21:47.833Z,48.40
2019-02-27T09:24:35.667Z,47.20
2019-02-27T09:27:24.031Z,46.20
2019-02-27T09:30:14.056Z,45.80
2019-02-27T09:33:02.427Z,45.60
2019-02-27T09:35:50.963Z,45.90
2019-02-27T09:38:38.882Z,45.00
2019-02-27T09:41:26.955Z,44.10
2019-02-27T09:44:15.082Z,43.80
2019-02-27T09:47:03.161Z,42.90
2019-02-27T09:49:51.168Z,43.90
2019-02-27T09:52:41.369Z,42.80
2019-02-27T09:55:29.506Z,42.40
2019-02-27T09:58:18.070Z,41.50
2019-02-27T10:01:17.466Z,42.00
2019-02-27T10:04:06.046Z,41.60
2019-02-27T10:06:54.318Z,41.80
2019-02-27T10:09:41.978Z,41.90
2019-02-27T10:12:32.426Z,40.60
2019-02-27T10:15:22.569Z,39.50
2019-02-27T10:18:10.923Z,38.80
2019-02-27T10:20:59.666Z,38.90
2019-02-27T10:23:48.058Z,37.80
2019-02-27T10:26:36.211Z,38.90
2019-02-27T10:29:24.123Z,38.60
2019-02-27T10:32:12.033Z,37.20
2019-02-27T10:35:00.035Z,37.20
2019-02-27T10:37:50.643Z,36.50
2019-02-27T10:40:37.242Z,35.00
2019-02-27T10:43:25.482Z,35.20
2019-02-27T10:46:13.351Z,36.30
2019-02-27T10:49:01.154Z,35.00
2019-02-27T10:51:48.776Z,34.90
2019-02-27T10:54:39.416Z,34.40
2019-02-27T10:57:31.460Z,35.30
2019-02-27T11:00:25.076Z,36.20
2019-02-27T11:03:12.575Z,33.80
2019-02-27T11:06:01.138Z,33.30
2019-02-27T11:08:49.311Z,32.50
2019-02-27T11:11:37.850Z,32.10
2019-02-27T11:14:26.235Z,32.40
2019-02-27T11:17:14.316Z,33.70
2019-02-27T11:20:02.407Z,32.80
2019-02-27T11:22:51.324Z,33.10
2019-02-27T11:25:39.432Z,32.10
2019-02-27T11:28:28.842Z,33.50
2019-02-27T11:31:17.102Z,32.00
2019-02-27T11:34:07.860Z,32.30
2019-02-27T11:36:55.014Z,32.40
2019-02-27T11:39:42.926Z,32.50
2019-02-27T11:42:32.075Z,33.80
2019-02-27T11:45:24.550Z,32.30
2019-02-27T11:48:11.574Z,29.90
2019-02-27T11:51:00.611Z,28.30
2019-02-27T11:53:49.330Z,27.40
2019-02-27T11:56:38.171Z,27.50
2019-02-27T11:59:26.944Z,27.40
2019-02-27T12:02:15.530Z,27.80
2019-02-27T12:05:03.355Z,28.20
2019-02-27T12:07:52.027Z,28.10
2019-02-27T12:10:40.698Z,27.80
2019-02-27T12:13:29.329Z,28.40
2019-02-27T12:16:18.306Z,29.40
2019-02-27T12:19:08.746Z,29.10
2019-02-27T12:21:59.448Z,29.20
2019-02-27T12:24:47.011Z,29.20
2019-02-27T12:27:48.585Z,30.30
2019-02-27T12:30:27.338Z,31.70
2019-02-27T12:33:15.674Z,31.80
2019-02-27T12:36:03.795Z,31.60
2019-02-27T12:38:51.710Z,32.00
2019-02-27T12:41:39.742Z,32.40
2019-02-27T12:44:28.163Z,32.60
2019-02-27T12:47:17.286Z,32.20
2019-02-27T12:50:06.295Z,32.10
2019-02-27T12:52:54.747Z,32.00
2019-02-27T12:55:43.462Z,31.60
2019-02-27T12:58:37.509Z,31.20
2019-02-27T13:01:25.564Z,31.70
2019-02-27T13:04:16.587Z,32.30
2019-02-27T13:07:10.730Z,32.50
2019-02-27T13:09:59.459Z,33.10
2019-02-27T13:12:49.215Z,34.00
2019-02-27T13:15:38.277Z,34.20
2019-02-27T13:18:31.533Z,34.00
2019-02-27T13:21:20.094Z,34.10
2019-02-27T13:24:06.904Z,34.60
2019-02-27T13:26:55.498Z,34.80
2019-02-27T13:29:44.603Z,35.20
2019-02-27T13:32:33.186Z,35.60
2019-02-27T13:35:23.223Z,35.90
2019-02-27T13:38:11.597Z,35.70
2019-02-27T13:40:59.866Z,35.10
2019-02-27T13:43:48.030Z,34.00
2019-02-27T13:46:36.355Z,33.50
2019-02-27T13:49:25.880Z,33.00
2019-02-27T13:52:14.427Z,31.70
2019-02-27T13:55:02.407Z,31.10
2019-02-27T13:57:50.942Z,31.10
2019-02-27T14:00:38.794Z,31.60
2019-02-27T14:03:26.583Z,31.00
2019-02-27T14:09:09.691Z,30.70
2019-02-27T14:11:59.351Z,30.50
2019-02-27T14:14:50.230Z,31.10
2019-02-27T14:17:41.322Z,31.60
2019-02-27T14:20:28.944Z,31.70
2019-02-27T14:23:17.423Z,32.40
2019-02-27T14:26:08.494Z,32.60
2019-02-27T14:28:55.860Z,32.80
2019-02-27T14:31:44.359Z,32.80
2019-02-27T14:34:32.259Z,31.50
2019-02-27T14:37:21.103Z,31.40
2019-02-27T14:40:11.847Z,31.40
2019-02-27T14:43:00.425Z,31.30
2019-02-27T14:45:48.412Z,31.30
2019-02-27T14:48:36.883Z,31.00
2019-02-27T14:54:18.968Z,29.70
2019-02-27T14:57:07.087Z,29.50
2019-02-27T14:59:55.407Z,29.70
2019-02-27T15:02:42.950Z,29.90
2019-02-27T15:05:31.445Z,29.80
2019-02-27T15:08:19.979Z,29.70
2019-02-27T15:11:07.807Z,29.60
2019-02-27T15:13:55.751Z,29.40
2019-02-27T15:16:49.070Z,29.10
2019-02-27T15:19:35.441Z,28.90
2019-02-27T15:22:26.057Z,29.50
2019-02-27T15:25:16.631Z,29.80
2019-02-27T15:28:05.099Z,29.90
2019-02-27T15:30:53.739Z,30.00
2019-02-27T15:33:41.677Z,29.50
2019-02-27T15:36:30.415Z,29.50
2019-02-27T15:39:21.189Z,29.70
2019-02-27T15:42:09.648Z,29.30
2019-02-27T15:44:57.954Z,29.50
2019-02-27T15:47:46.249Z,30.00
2019-02-27T15:50:34.915Z,31.10
2019-02-27T15:53:23.162Z,31.40
2019-02-27T15:56:12.035Z,31.40
2019-02-27T15:59:05.181Z,32.10
2019-02-27T16:01:50.341Z,32.10
2019-02-27T16:04:38.653Z,32.00
2019-02-27T16:07:27.122Z,32.20
2019-02-27T16:10:17.164Z,32.20
2019-02-27T16:13:05.539Z,32.80
2019-02-27T16:15:53.689Z,32.80
2019-02-27T16:18:42.574Z,33.10
2019-02-27T16:21:30.606Z,33.20
2019-02-27T16:24:18.469Z,33.20
2019-02-27T16:27:07.565Z,34.00
2019-02-27T16:29:56.736Z,34.50
2019-02-27T16:32:48.517Z,34.80
2019-02-27T16:35:34.854Z,35.70
2019-02-27T16:38:23.643Z,35.30
2019-02-27T16:41:11.957Z,35.40
2019-02-27T16:43:59.978Z,35.60
2019-02-27T16:46:48.263Z,36.00
2019-02-27T16:49:36.546Z,36.60
2019-02-27T16:52:24.866Z,36.90
2019-02-27T16:55:14.213Z,37.30
2019-02-27T16:58:02.324Z,37.80
2019-02-27T17:00:54.330Z,38.00
2019-02-27T17:03:40.174Z,38.30
2019-02-27T17:06:30.491Z,38.30
2019-02-27T17:09:18.419Z,38.50
2019-02-27T17:12:07.993Z,38.60
2019-02-27T17:14:58.629Z,39.00
2019-02-27T17:17:46.534Z,39.20
2019-02-27T17:20:34.679Z,39.40
2019-02-27T17:23:22.974Z,39.70
2019-02-27T17:26:12.159Z,40.00
2019-02-27T17:29:00.601Z,40.50
2019-02-27T17:31:52.554Z,41.30
2019-02-27T17:34:39.239Z,40.90
2019-02-27T17:37:27.890Z,41.20
2019-02-27T17:40:16.353Z,41.90
2019-02-27T17:43:06.586Z,41.80
2019-02-27T17:45:55.265Z,41.80
2019-02-27T17:48:45.939Z,41.90
2019-02-27T17:51:33.526Z,42.20
2019-02-27T17:54:23.378Z,42.10
2019-02-27T17:57:11.981Z,42.10
2019-02-27T18:00:01.006Z,42.40
2019-02-27T18:02:50.037Z,42.90
2019-02-27T18:05:38.976Z,43.50
2019-02-27T18:08:27.922Z,43.60
2019-02-27T18:11:16.381Z,43.70
2019-02-27T18:17:00.329Z,44.30
2019-02-27T18:19:50.288Z,44.60
2019-02-27T18:22:39.719Z,44.90
2019-02-27T18:25:28.295Z,45.50
2019-02-27T18:28:17.151Z,45.80
2019-02-27T18:31:06.904Z,45.90
2019-02-27T18:33:56.156Z,46.40
2019-02-27T18:36:46.562Z,46.70
2019-02-27T18:39:36.509Z,46.60
2019-02-27T18:42:23.226Z,46.90
2019-02-27T18:45:15.278Z,47.20
2019-02-27T18:48:03.000Z,47.60
2019-02-27T18:50:51.119Z,47.90
2019-02-27T18:53:38.809Z,48.00
2019-02-27T18:56:27.407Z,48.30
2019-02-27T18:59:16.525Z,48.20
2019-02-27T19:02:07.400Z,48.50
2019-02-27T19:04:54.783Z,48.60
2019-02-27T19:07:53.911Z,48.80
2019-02-27T19:10:42.470Z,48.70
2019-02-27T19:13:32.403Z,48.80
2019-02-27T19:16:21.520Z,49.20
2019-02-27T19:19:09.991Z,49.70
2019-02-27T19:21:58.996Z,50.50
2019-02-27T19:24:48.135Z,50.90
2019-02-27T19:27:37.645Z,51.00
2019-02-27T19:30:26.946Z,51.20
2019-02-27T19:33:15.539Z,51.30
2019-02-27T19:36:05.959Z,51.30
2019-02-27T19:38:55.004Z,51.40
2019-02-27T19:41:44.623Z,51.40
2019-02-27T19:44:33.153Z,51.50
2019-02-27T19:47:21.307Z,51.60
2019-02-27T19:50:11.250Z,51.70
2019-02-27T19:53:03.271Z,52.00
2019-02-27T19:55:49.943Z,52.30
2019-02-27T19:58:38.558Z,52.30
2019-02-27T20:01:27.255Z,52.50
2019-02-27T20:04:16.504Z,52.70
2019-02-27T20:07:05.407Z,52.70
2019-02-27T20:12:52.699Z,53.10
2019-02-27T20:15:39.592Z,53.10
2019-02-27T20:18:28.404Z,53.40
2019-02-27T20:21:17.338Z,53.50
2019-02-27T20:24:14.196Z,53.60
2019-02-27T20:26:56.461Z,54.30
2019-02-27T20:29:44.710Z,54.70
2019-02-27T20:32:33.354Z,54.90
2019-02-27T20:35:21.627Z,54.80
2019-02-27T20:38:15.354Z,54.80
2019-02-27T20:41:00.007Z,55.00
2019-02-27T20:43:48.809Z,55.10
2019-02-27T20:46:40.102Z,55.20
2019-02-27T20:49:29.863Z,55.40
2019-02-27T20:52:18.707Z,55.60
2019-02-27T20:55:09.751Z,55.50
2019-02-27T20:57:58.727Z,55.70
2019-02-27T21:00:49.748Z,56.00
2019-02-27T21:03:39.017Z,56.10
2019-02-27T21:06:29.368Z,56.10
2019-02-27T21:09:18.306Z,56.20
2019-02-27T21:12:07.279Z,56.40
2019-02-27T21:14:57.895Z,56.60
2019-02-27T21:17:46.258Z,57.00
2019-02-27T21:20:34.644Z,57.20
2019-02-27T21:23:23.179Z,57.50
2019-02-27T21:26:11.605Z,57.70
2019-02-27T21:28:59.642Z,58.00
2019-02-27T21:31:47.926Z,58.20
2019-02-27T21:34:35.802Z,58.40
2019-02-27T21:37:24.327Z,58.60
2019-02-27T21:40:13.298Z,58.50
2019-02-27T21:43:01.494Z,58.50
2019-02-27T21:45:49.346Z,58.50
2019-02-27T21:48:37.871Z,58.40
2019-02-27T21:51:26.092Z,58.30
2019-02-27T21:54:14.829Z,58.30
2019-02-27T21:57:02.553Z,58.20
2019-02-27T21:59:50.262Z,58.30
2019-02-27T22:02:38.942Z,58.50
2019-02-27T22:05:27.499Z,58.50
2019-02-27T22:08:15.102Z,58.50
2019-02-27T22:11:03.179Z,58.50
2019-02-27T22:13:51.241Z,58.70
2019-02-27T22:16:40.810Z,59.00
2019-02-27T22:19:29.819Z,59.30
2019-02-27T22:22:17.326Z,59.30
2019-02-27T22:25:05.522Z,59.20
2019-02-27T22:27:53.576Z,59.00
2019-02-27T22:30:41.352Z,59.30
2019-02-27T22:33:29.393Z,59.70
2019-02-27T22:36:17.171Z,59.90
2019-02-27T22:39:06.787Z,60.20
2019-02-27T22:41:54.499Z,60.60
2019-02-27T22:44:42.633Z,60.80
2019-02-27T22:47:30.679Z,60.50
2019-02-27T22:50:19.442Z,60.50
2019-02-27T22:53:07.479Z,60.80
2019-02-27T22:55:55.539Z,60.90
2019-02-27T22:58:43.705Z,61.20
2019-02-27T23:01:53.138Z,61.30
2019-02-27T23:04:41.691Z,61.00
2019-02-27T23:07:29.686Z,60.90
2019-02-27T23:10:17.768Z,60.90
2019-02-27T23:13:06.426Z,61.00
2019-02-27T23:15:57.814Z,61.30
2019-02-27T23:18:44.859Z,61.60
2019-02-27T23:21:32.572Z,61.80
2019-02-27T23:24:22.489Z,61.80
2019-02-27T23:27:11.538Z,62.30
2019-02-27T23:29:59.963Z,62.30
2019-02-27T23:32:48.318Z,62.10
2019-02-27T23:35:37.121Z,62.10
2019-02-27T23:38:25.651Z,62.10
2019-02-27T23:41:13.586Z,62.00
2019-02-27T23:44:02.209Z,61.80
2019-02-27T23:46:54.487Z,61.50
2019-02-27T23:49:40.293Z,61.70
2019-02-27T23:52:28.831Z,61.80
2019-02-27T23:55:17.611Z,62.30
2019-02-27T23:58:06.114Z,62.50
